SBRJSBCP

Guest
Details From SBRJ - Santos-Dumont
To SBCP - Bartolomeu Lisandro
Flight Number -
Tags generated
Created
Modified
Stats Distance 126 nm / 234 km
Max Altitude 7,300 ft / 2,225 m
Waypoints 3
Social Downloads 1
Likes 0
Share VATSIM

Download

Looking for another format? Having issues loading an existing format? Contact us
Advertisement - Login to hide

Notes

Basic altitude profile: - Ascent Rate: 2500ft/min - Ascent Speed: 250kts - Cruise Altitude: 35000ft - Cruise Speed: 420kts - Descent Rate: 1500ft/min - Descent Speed: 250kts Options: - Use NATs: yes - Use PACOTS: yes - Use low airways: yes - Use high airways: yes

Route

SBRJ PCX SBCP

ID Type Via Altitude Latitude Longitude Leg Dist Tot Dist Heading (true) Name
O SBRJ APT - 0 ft / 0 m -22.91046˚ -43.16313˚ - 0 nm - Santos-Dumont
PCX VOR - 7,300 ft / 2,225 m -22.71533˚ -42.85750˚ 20 nm 20 nm 55° / 55° PORTO VOR-DME
O SBCP APT - 0 ft / 0 m -21.69833˚ -41.30167˚ 105 nm 126 nm 55° / 54° Bartolomeu Lisandro

Altitude Profile

Advertisement - Login to hide

SBRJ

Details ICAO SBRJ (SDU)
Name Santos-Dumont
Region Brazil
Timezone Unknown (UTC+0.0)
Stats Elevation 11 ft / 3 m (AMSL)
Location -22.910460° -43.163133°
Runways 2
Magnetic Variation 22.826° W

METAR

SBRJ 251400Z 35003KT 6000 SCT020 25/19 Q1023

Decode

TAF

TAF SBRJ 250830Z 2512/2524 02005KT 8000 SCT020TX25/2517Z TN21/2524Z BECMG 2514/2516 14010KT TEMPO 2516/2518 6000 RA BKN020 BECMG 2521/2523 17010KT BKN030 RMK PFV

Decode

Departure Runways

ID Width Length Bearing (true) Bearing (mag) Surface Threshold Offset Overrun Length
02L 98 ft / 30 m 4,154 ft / 1,266 m 358.02° 20.85° Asphalt 0 ft / 0 m 80 ft / 24 m
02R 138 ft / 42 m 4,361 ft / 1,329 m 358.01° 20.84° Asphalt 0 ft / 0 m 80 ft / 24 m
20L 138 ft / 42 m 4,361 ft / 1,329 m 178.01° 200.84° Asphalt 0 ft / 0 m 80 ft / 24 m
20R 98 ft / 30 m 4,154 ft / 1,266 m 178.02° 200.85° Asphalt 0 ft / 0 m 95 ft / 29 m

SBCP

Details ICAO SBCP (CAW)
Name Bartolomeu Lisandro
Region Brazil
Timezone America/Sao_Paulo (UTC-3.0)
Stats Elevation 57 ft / 17 m (AMSL)
Location -21.698334° -41.301668°
Runways 1
Magnetic Variation 23.513° W

METAR

SBCP 251400Z 00000KT 9999 SCT015 OVC080 23/19 Q1023

Decode

TAF

TAF SBCP 250830Z 2512/2524 04005KT 9999 SCT020TX26/2517Z TN21/2523Z BECMG 2514/2516 15010KT BECMG 2523/2524 06005KT BKN015 RMK PFV

Decode

Destination Runways

ID Width Length Bearing (true) Bearing (mag) Surface Threshold Offset Overrun Length
07 148 ft / 45 m 5,093 ft / 1,552 m 46.60° 70.11° Asphalt 0 ft / 0 m 0 ft / 0 m
25 148 ft / 45 m 5,093 ft / 1,552 m 226.60° 250.11° Asphalt 0 ft / 0 m 0 ft / 0 m